createdAt,value
2019-05-09T00:02:33.543Z,99645.80
2019-05-09T00:05:03.587Z,99640.42
2019-05-09T00:07:33.793Z,99638.39
2019-05-09T00:10:04.043Z,99635.90
2019-05-09T00:12:33.757Z,99628.03
2019-05-09T00:15:04.488Z,99635.72
2019-05-09T00:17:34.214Z,99636.91
2019-05-09T00:20:13.516Z,99636.06
2019-05-09T00:22:43.578Z,99634.55
2019-05-09T00:25:13.275Z,99635.39
2019-05-09T00:27:43.537Z,99632.70
2019-05-09T00:30:14.015Z,99623.67
2019-05-09T00:32:44.187Z,99632.36
2019-05-09T00:35:28.568Z,99627.33
2019-05-09T00:38:04.420Z,99626.97
2019-05-09T00:40:34.327Z,99627.98
2019-05-09T00:43:04.166Z,99630.00
2019-05-09T00:46:04.109Z,99631.00
2019-05-09T00:48:39.582Z,99621.49
2019-05-09T00:51:09.030Z,99626.52
2019-05-09T00:53:38.469Z,99626.33
2019-05-09T00:56:07.908Z,99626.34
2019-05-09T00:58:37.346Z,99632.69
2019-05-09T01:01:06.931Z,99622.29
2019-05-09T01:03:36.507Z,99618.78
2019-05-09T01:06:05.933Z,99622.95
2019-05-09T01:08:35.353Z,99620.56
2019-05-09T01:11:12.084Z,99610.52
2019-05-09T01:13:36.004Z,99606.33
2019-05-09T01:16:05.432Z,99614.87
2019-05-09T01:18:35.515Z,99613.53
2019-05-09T01:21:04.932Z,99607.84
2019-05-09T01:23:34.620Z,99602.36
2019-05-09T01:26:04.205Z,99610.94
2019-05-09T01:28:34.120Z,99605.27
2019-05-09T01:31:04.294Z,99601.11
2019-05-09T01:33:53.401Z,99600.92
2019-05-09T01:36:23.516Z,99599.44
2019-05-09T01:38:53.977Z,99605.63
2019-05-09T01:41:30.309Z,99594.56
2019-05-09T01:43:55.025Z,99596.24
2019-05-09T01:46:24.632Z,99608.95
2019-05-09T01:48:54.118Z,99602.25
2019-05-09T01:51:23.593Z,99602.23
2019-05-09T01:53:54.704Z,99600.22
2019-05-09T01:56:24.119Z,99599.69
2019-05-09T01:58:54.086Z,99597.13
2019-05-09T02:01:24.289Z,99596.43
2019-05-09T02:03:53.958Z,99593.05
2019-05-09T02:06:24.378Z,99593.67
2019-05-09T02:08:54.620Z,99593.64
2019-05-09T02:11:39.113Z,99593.45
2019-05-09T02:13:55.556Z,99590.75
2019-05-09T02:16:33.829Z,99587.08
2019-05-09T02:19:24.108Z,99586.86
2019-05-09T02:21:53.757Z,99585.14
2019-05-09T02:24:23.530Z,99584.76
2019-05-09T02:26:53.373Z,99583.22
2019-05-09T02:29:23.284Z,99585.02
2019-05-09T02:31:54.689Z,99584.66
2019-05-09T02:34:25.052Z,99592.38
2019-05-09T02:36:54.786Z,99587.38
2019-05-09T02:39:24.353Z,99588.17
2019-05-09T02:42:04.782Z,99587.33
2019-05-09T02:44:29.017Z,99586.65
2019-05-09T02:47:09.019Z,99582.98
2019-05-09T02:49:39.194Z,99586.98
2019-05-09T02:52:09.112Z,99584.77
2019-05-09T02:54:39.413Z,99582.59
2019-05-09T02:57:09.566Z,99585.76
2019-05-09T02:59:50.310Z,99583.28
2019-05-09T03:02:38.381Z,99585.61
2019-05-09T03:05:08.866Z,99583.97
2019-05-09T03:07:50.678Z,99580.95
2019-05-09T03:10:20.913Z,99576.95
2019-05-09T03:12:50.707Z,99579.31
2019-05-09T03:15:20.376Z,99580.97
2019-05-09T03:17:50.193Z,99581.49
2019-05-09T03:20:44.834Z,99585.31
2019-05-09T03:23:14.393Z,99579.67
2019-05-09T03:25:43.862Z,99578.03
2019-05-09T03:28:35.207Z,99582.73
2019-05-09T03:31:09.129Z,99576.59
2019-05-09T03:33:40.330Z,99580.48
2019-05-09T03:36:07.811Z,99577.52
2019-05-09T03:38:37.786Z,99575.94
2019-05-09T03:41:08.476Z,99574.31
2019-05-09T03:43:38.216Z,99582.36
2019-05-09T03:46:17.934Z,99578.72
2019-05-09T03:48:49.875Z,99576.09
2019-05-09T03:51:19.396Z,99577.12
2019-05-09T03:53:48.837Z,99580.81
2019-05-09T03:56:21.693Z,99582.18
2019-05-09T03:58:51.263Z,99587.05
2019-05-09T04:01:20.712Z,99586.55
2019-05-09T04:03:50.335Z,99577.16
2019-05-09T04:06:19.800Z,99583.87
2019-05-09T04:08:49.250Z,99573.45
2019-05-09T04:11:18.725Z,99576.45
2019-05-09T04:13:54.182Z,99582.45
2019-05-09T04:16:23.630Z,99580.05
2019-05-09T04:18:53.043Z,99575.27
2019-05-09T04:21:22.668Z,99575.12
2019-05-09T04:23:52.255Z,99565.55
2019-05-09T04:26:52.737Z,99568.47
2019-05-09T04:29:22.350Z,99566.94
2019-05-09T04:31:51.789Z,99559.11
2019-05-09T04:34:21.295Z,99565.55
2019-05-09T04:36:50.739Z,99556.55
2019-05-09T04:39:23.699Z,99564.59
2019-05-09T04:41:55.138Z,99558.39
2019-05-09T04:44:30.477Z,99550.58
2019-05-09T04:47:03.670Z,99552.70
2019-05-09T04:49:39.574Z,99555.41
2019-05-09T04:52:02.438Z,99548.34
2019-05-09T04:54:31.886Z,99547.17
2019-05-09T04:57:01.357Z,99543.05
2019-05-09T04:59:31.437Z,99539.08
2019-05-09T05:02:11.940Z,99541.86
2019-05-09T05:04:41.384Z,99534.88
2019-05-09T05:07:10.842Z,99534.88
2019-05-09T05:09:40.379Z,99532.48
2019-05-09T05:12:09.822Z,99533.06
2019-05-09T05:14:39.315Z,99536.50
2019-05-09T05:17:11.317Z,99537.43
2019-05-09T05:19:40.048Z,99524.77
2019-05-09T05:22:28.551Z,99530.52
2019-05-09T05:25:00.926Z,99526.36
2019-05-09T05:27:30.472Z,99524.83
2019-05-09T05:29:59.899Z,99524.58
2019-05-09T05:32:35.094Z,99527.60
2019-05-09T05:35:09.550Z,99521.89
2019-05-09T05:37:38.993Z,99516.97
2019-05-09T05:40:08.655Z,99514.06
2019-05-09T05:42:38.824Z,99498.04
2019-05-09T05:45:08.685Z,99502.50
2019-05-09T05:47:49.072Z,99497.23
2019-05-09T05:50:18.489Z,99491.74
2019-05-09T05:52:48.037Z,99502.66
2019-05-09T05:55:18.257Z,99497.48
2019-05-09T05:57:47.999Z,99492.53
2019-05-09T06:00:19.994Z,99507.53
2019-05-09T06:02:49.533Z,99501.47
2019-05-09T06:05:19.100Z,99502.02
2019-05-09T06:07:48.664Z,99495.75
2019-05-09T06:10:18.829Z,99495.80
2019-05-09T06:12:48.439Z,99496.98
2019-05-09T06:15:18.372Z,99485.66
2019-05-09T06:17:48.565Z,99494.12
2019-05-09T06:20:18.092Z,99492.71
2019-05-09T06:22:47.880Z,99492.83
2019-05-09T06:25:20.916Z,99491.14
2019-05-09T06:27:48.969Z,99487.04
2019-05-09T06:30:28.131Z,99483.00
2019-05-09T06:32:58.106Z,99478.72
2019-05-09T06:35:28.423Z,99477.03
2019-05-09T06:37:58.901Z,99471.06
2019-05-09T06:40:28.937Z,99467.37
2019-05-09T06:43:00.120Z,99456.33
2019-05-09T06:45:41.711Z,99457.43
2019-05-09T06:48:11.154Z,99449.12
2019-05-09T06:53:09.105Z,99450.30
2019-05-09T06:55:38.713Z,99448.51
2019-05-09T06:58:27.722Z,99443.00
2019-05-09T07:01:07.718Z,99445.97
2019-05-09T07:03:37.618Z,99433.91
2019-05-09T07:06:32.019Z,99428.31
2019-05-09T07:09:14.275Z,99428.34
2019-05-09T07:11:43.781Z,99424.30
2019-05-09T07:14:34.716Z,99426.09
2019-05-09T07:17:04.859Z,99423.58
2019-05-09T07:19:34.383Z,99429.13
2019-05-09T07:22:13.453Z,99430.03
2019-05-09T07:25:06.517Z,99424.81
2019-05-09T07:27:33.825Z,99424.09
2019-05-09T07:30:09.483Z,99422.12
2019-05-09T07:32:44.061Z,99420.91
2019-05-09T07:35:13.854Z,99420.26
2019-05-09T07:37:43.319Z,99417.16
2019-05-09T07:40:12.798Z,99414.87
2019-05-09T07:42:42.259Z,99411.76
2019-05-09T07:45:11.768Z,99405.67
2019-05-09T07:47:41.258Z,99407.30
2019-05-09T07:50:10.730Z,99402.17
2019-05-09T07:52:40.250Z,99403.20
2019-05-09T07:55:13.967Z,99401.95
2019-05-09T07:57:47.412Z,99392.38
2019-05-09T08:00:18.291Z,99397.64
2019-05-09T08:02:49.304Z,99393.27
2019-05-09T08:05:28.009Z,99397.47
2019-05-09T08:07:58.545Z,99393.92
2019-05-09T08:10:32.739Z,99392.47
2019-05-09T08:12:59.526Z,99389.17
2019-05-09T08:15:29.067Z,99379.02
2019-05-09T08:17:59.307Z,99381.48
2019-05-09T08:20:28.959Z,99386.41
2019-05-09T08:23:01.937Z,99384.75
2019-05-09T08:25:29.689Z,99379.34
2019-05-09T08:27:59.193Z,99372.20
2019-05-09T08:30:35.407Z,99375.50
2019-05-09T08:33:00.193Z,99363.44
2019-05-09T08:35:29.647Z,99365.38
2019-05-09T08:37:59.204Z,99359.31
2019-05-09T08:40:28.754Z,99349.98
2019-05-09T08:42:59.005Z,99354.65
2019-05-09T08:45:31.499Z,99348.59
2019-05-09T08:48:00.030Z,99346.37
2019-05-09T08:50:38.934Z,99335.99
2019-05-09T08:53:08.349Z,99332.69
2019-05-09T08:55:38.446Z,99321.17
2019-05-09T08:58:08.307Z,99319.78
2019-05-09T09:00:39.058Z,99316.23
2019-05-09T09:03:08.964Z,99311.30
2019-05-09T09:05:38.478Z,99304.97
2019-05-09T09:08:08.579Z,99296.73
2019-05-09T09:10:38.740Z,99293.45
2019-05-09T09:13:09.089Z,99290.16
2019-05-09T09:16:02.166Z,99289.06
2019-05-09T09:18:09.079Z,99278.62
2019-05-09T09:20:38.503Z,99287.42
2019-05-09T09:23:08.881Z,99272.53
2019-05-09T09:25:39.326Z,99272.98
2019-05-09T09:28:09.151Z,99271.84
2019-05-09T09:30:39.166Z,99274.46
2019-05-09T09:33:13.181Z,99279.09
2019-05-09T09:35:39.901Z,99279.23
2019-05-09T09:38:09.641Z,99271.84
2019-05-09T09:40:39.064Z,99270.44
2019-05-09T09:43:09.343Z,99271.76
2019-05-09T09:45:39.011Z,99272.52
2019-05-09T09:48:09.195Z,99268.63
2019-05-09T09:50:38.881Z,99269.48
2019-05-09T09:53:09.116Z,99266.19
2019-05-09T09:55:38.900Z,99257.94
2019-05-09T09:58:08.500Z,99264.14
2019-05-09T10:01:04.628Z,99261.20
2019-05-09T10:03:35.180Z,99259.84
2019-05-09T10:06:04.669Z,99261.12
2019-05-09T10:08:34.539Z,99256.52
2019-05-09T10:11:03.986Z,99257.48
2019-05-09T10:13:33.603Z,99251.42
2019-05-09T10:16:28.239Z,99245.03
2019-05-09T10:19:08.309Z,99247.07
2019-05-09T10:21:41.751Z,99241.64
2019-05-09T10:24:11.222Z,99238.93
2019-05-09T10:26:59.572Z,99238.08
2019-05-09T10:29:29.352Z,99232.66
2019-05-09T10:31:58.816Z,99229.66
2019-05-09T10:34:28.923Z,99227.71
2019-05-09T10:36:58.430Z,99228.48
2019-05-09T10:39:27.885Z,99221.20
2019-05-09T10:41:58.511Z,99211.91
2019-05-09T10:44:41.375Z,99211.92
2019-05-09T10:47:27.191Z,99210.73
2019-05-09T10:49:58.185Z,99207.41
2019-05-09T10:52:28.393Z,99214.91
2019-05-09T10:54:58.215Z,99206.74
2019-05-09T10:57:31.849Z,99200.34
2019-05-09T10:59:59.074Z,99182.52
2019-05-09T11:02:28.622Z,99203.13
2019-05-09T11:04:58.129Z,99194.38
2019-05-09T11:07:29.020Z,99195.27
2019-05-09T11:09:59.076Z,99190.39
2019-05-09T11:12:28.529Z,99188.16
2019-05-09T11:14:59.358Z,99178.77
2019-05-09T11:17:29.205Z,99178.91
2019-05-09T11:19:59.054Z,99176.98
2019-05-09T11:22:29.441Z,99172.37
2019-05-09T11:24:59.104Z,99176.24
2019-05-09T11:27:29.373Z,99171.93
2019-05-09T11:29:58.914Z,99168.69
2019-05-09T11:32:28.389Z,99159.27
2019-05-09T11:34:57.881Z,99152.88
2019-05-09T11:37:27.426Z,99159.62
2019-05-09T11:39:57.981Z,99159.70
2019-05-09T11:42:28.494Z,99163.16
2019-05-09T11:44:58.465Z,99158.15
2019-05-09T11:47:37.597Z,99157.47
2019-05-09T11:49:59.114Z,99157.38
2019-05-09T11:52:29.055Z,99153.17
2019-05-09T11:54:58.529Z,99151.04
2019-05-09T11:57:31.295Z,99146.63
2019-05-09T11:59:59.299Z,99143.00
2019-05-09T12:02:28.778Z,99138.97
2019-05-09T12:04:58.277Z,99140.75
2019-05-09T12:07:28.792Z,99144.25
2019-05-09T12:09:59.120Z,99136.94
2019-05-09T12:12:28.587Z,99129.91
2019-05-09T12:14:58.305Z,99135.38
2019-05-09T12:17:40.819Z,99133.71
2019-05-09T12:20:09.480Z,99133.58
2019-05-09T12:22:30.694Z,99135.67
2019-05-09T12:25:00.173Z,99124.09
2019-05-09T12:27:32.104Z,99129.73
2019-05-09T12:30:01.566Z,99123.89
2019-05-09T12:32:31.033Z,99122.63
2019-05-09T12:35:00.942Z,99117.59
2019-05-09T12:37:30.503Z,99110.39
2019-05-09T12:40:00.015Z,99107.84
2019-05-09T12:42:29.711Z,99108.86
2019-05-09T12:44:59.325Z,99100.69
2019-05-09T12:47:29.253Z,99101.05
2019-05-09T12:50:02.703Z,99091.05
2019-05-09T12:52:30.289Z,99082.91
2019-05-09T12:55:00.839Z,99072.58
2019-05-09T12:57:30.313Z,99072.58
2019-05-09T12:59:59.938Z,99064.72
2019-05-09T13:02:29.737Z,99058.02
2019-05-09T13:04:59.225Z,99053.12
2019-05-09T13:07:29.669Z,99048.88
2019-05-09T13:09:59.462Z,99044.67
2019-05-09T13:12:29.254Z,99047.09
2019-05-09T13:14:58.857Z,99039.61
2019-05-09T13:17:34.601Z,99038.59
2019-05-09T13:20:04.944Z,99038.38
2019-05-09T13:22:34.400Z,99034.39
2019-05-09T13:25:04.261Z,99025.95
2019-05-09T13:27:33.829Z,99028.87
2019-05-09T13:30:03.738Z,99019.75
2019-05-09T13:32:33.162Z,99012.24
2019-05-09T13:35:02.658Z,99013.75
2019-05-09T13:37:32.113Z,99010.70
2019-05-09T13:40:01.580Z,99010.42
2019-05-09T13:42:31.038Z,98999.89
2019-05-09T13:45:00.491Z,98996.05
2019-05-09T13:47:30.034Z,98996.33
2019-05-09T13:49:59.537Z,98988.65
2019-05-09T13:52:29.017Z,98988.58
2019-05-09T13:54:58.746Z,98991.16
2019-05-09T13:57:28.393Z,98986.50
2019-05-09T13:59:59.631Z,98992.91
2019-05-09T14:02:29.529Z,98992.85
2019-05-09T14:04:59.266Z,98992.33
2019-05-09T14:07:28.860Z,98978.28
2019-05-09T14:09:58.316Z,98989.84
2019-05-09T14:12:29.268Z,98980.73
2019-05-09T14:14:58.727Z,98980.94
2019-05-09T14:17:44.650Z,98976.38
2019-05-09T14:19:59.416Z,98978.77
2019-05-09T14:22:28.874Z,98970.44
2019-05-09T14:24:58.612Z,98972.91
2019-05-09T14:27:28.823Z,98965.73
2019-05-09T14:29:59.581Z,98968.09
2019-05-09T14:32:31.326Z,98966.57
2019-05-09T14:35:00.477Z,98966.20
2019-05-09T14:37:30.197Z,98964.05
2019-05-09T14:40:04.475Z,98963.73
2019-05-09T14:42:30.955Z,98966.20
2019-05-09T14:45:00.389Z,98958.02
2019-05-09T14:47:29.903Z,98956.37
2019-05-09T14:49:59.739Z,98947.83
2019-05-09T14:52:29.265Z,98946.41
2019-05-09T14:54:58.755Z,98949.43
2019-05-09T14:57:28.658Z,98940.92
2019-05-09T14:59:58.553Z,98945.37
2019-05-09T15:02:28.117Z,98938.33
2019-05-09T15:04:58.609Z,98942.80
2019-05-09T15:07:28.460Z,98945.30
2019-05-09T15:09:59.944Z,98938.51
2019-05-09T15:12:29.593Z,98941.02
2019-05-09T15:14:59.039Z,98934.16
2019-05-09T15:17:28.515Z,98937.47
2019-05-09T15:20:00.595Z,98945.67
2019-05-09T15:22:29.247Z,98940.48
2019-05-09T15:24:59.182Z,98937.19
2019-05-09T15:27:28.708Z,98945.64
2019-05-09T15:29:58.581Z,98939.60
2019-05-09T15:32:28.394Z,98937.40
2019-05-09T15:34:57.900Z,98933.52
2019-05-09T15:37:28.616Z,98931.59
2019-05-09T15:39:58.378Z,98938.95
2019-05-09T15:42:30.444Z,98928.27
2019-05-09T15:44:59.093Z,98931.25
2019-05-09T15:47:32.602Z,98925.22
2019-05-09T15:50:15.591Z,98929.55
2019-05-09T15:52:33.447Z,98928.98
2019-05-09T15:55:02.956Z,98939.05
2019-05-09T15:57:32.487Z,98934.40
2019-05-09T16:00:01.929Z,98933.52
2019-05-09T16:02:33.844Z,98933.78
2019-05-09T16:05:04.119Z,98929.39
2019-05-09T16:07:33.556Z,98934.69
2019-05-09T16:10:03.055Z,98927.34
2019-05-09T16:12:32.499Z,98929.80
2019-05-09T16:15:01.941Z,98927.34
2019-05-09T16:17:31.370Z,98933.44
2019-05-09T16:20:00.801Z,98932.97
2019-05-09T16:22:30.226Z,98937.09
2019-05-09T16:24:59.659Z,98926.39
2019-05-09T16:27:29.069Z,98927.75
2019-05-09T16:29:58.459Z,98923.47
2019-05-09T16:32:27.897Z,98916.91
2019-05-09T16:34:57.316Z,98918.31
2019-05-09T16:37:28.353Z,98915.30
2019-05-09T16:39:57.831Z,98923.34
2019-05-09T16:42:27.631Z,98921.19
2019-05-09T16:44:59.313Z,98926.83
2019-05-09T16:47:28.515Z,98921.72
2019-05-09T16:49:58.102Z,98921.23
2019-05-09T16:52:27.477Z,98921.52
2019-05-09T16:55:08.266Z,98920.79
2019-05-09T16:57:37.825Z,98929.19
2019-05-09T17:00:08.028Z,98935.71
2019-05-09T17:02:38.141Z,98938.34
2019-05-09T17:05:08.464Z,98936.89
2019-05-09T17:07:38.523Z,98939.17
2019-05-09T17:10:08.479Z,98942.28
2019-05-09T17:12:37.937Z,98947.99
2019-05-09T17:15:08.506Z,98945.89
2019-05-09T17:17:38.680Z,98946.02
2019-05-09T17:20:10.064Z,98951.86
2019-05-09T17:23:10.388Z,98954.14
2019-05-09T17:25:28.444Z,98953.83
2019-05-09T17:27:59.459Z,98958.86
2019-05-09T17:30:29.017Z,98961.28
2019-05-09T17:32:58.681Z,98963.92
2019-05-09T17:35:28.121Z,98962.45
2019-05-09T17:37:57.600Z,98969.36
2019-05-09T17:40:28.099Z,98973.22
2019-05-09T17:42:59.146Z,98949.73
2019-05-09T17:45:28.788Z,98970.63
2019-05-09T17:47:58.207Z,98973.81
2019-05-09T17:50:28.422Z,98979.13
2019-05-09T17:52:58.169Z,98983.34
2019-05-09T17:55:27.603Z,98981.95
2019-05-09T17:57:58.644Z,98985.11
2019-05-09T18:00:28.284Z,98988.00
2019-05-09T18:02:58.031Z,98990.52
2019-05-09T18:05:27.515Z,98998.14
2019-05-09T18:07:57.892Z,99003.37
2019-05-09T18:10:27.431Z,99002.28
2019-05-09T18:12:58.847Z,99002.33
2019-05-09T18:15:28.319Z,99004.61
2019-05-09T18:17:58.575Z,99004.17
2019-05-09T18:20:28.509Z,99012.47
2019-05-09T18:22:58.637Z,99009.30
2019-05-09T18:25:28.364Z,99008.25
2019-05-09T18:27:57.895Z,99022.53
2019-05-09T18:30:27.900Z,99020.88
2019-05-09T18:33:16.392Z,99023.58
2019-05-09T18:35:48.372Z,99026.02
2019-05-09T18:38:34.062Z,99026.14
2019-05-09T18:41:07.004Z,99027.79
2019-05-09T18:43:34.650Z,99031.95
2019-05-09T18:46:04.114Z,99031.28
2019-05-09T18:48:34.028Z,99035.39
2019-05-09T18:51:11.234Z,99038.60
2019-05-09T18:53:58.072Z,99041.98
2019-05-09T18:56:39.403Z,99045.83
2019-05-09T18:59:09.097Z,99047.27
2019-05-09T19:01:38.525Z,99053.23
2019-05-09T19:04:08.385Z,99046.17
2019-05-09T19:06:39.772Z,99045.50
2019-05-09T19:09:08.972Z,99050.97
2019-05-09T19:11:38.404Z,99045.69
2019-05-09T19:14:26.388Z,99041.02
2019-05-09T19:17:25.295Z,99042.68
2019-05-09T19:20:26.118Z,99038.02
2019-05-09T19:22:56.429Z,99041.75
2019-05-09T19:25:26.039Z,99038.84
2019-05-09T19:27:55.468Z,99042.68
2019-05-09T19:30:24.896Z,99038.02
2019-05-09T19:32:54.310Z,99044.34
2019-05-09T19:35:23.961Z,99046.73
2019-05-09T19:37:53.388Z,99041.94
2019-05-09T19:40:22.815Z,99037.58
2019-05-09T19:42:52.456Z,99045.69
2019-05-09T19:45:21.872Z,99051.09
2019-05-09T19:47:51.395Z,99050.05
2019-05-09T19:50:20.846Z,99052.02
2019-05-09T19:52:50.268Z,99049.63
2019-05-09T19:55:19.758Z,99047.19
2019-05-09T19:57:49.186Z,99049.00
2019-05-09T20:00:18.611Z,99044.34
2019-05-09T20:02:48.039Z,99035.70
2019-05-09T20:05:17.469Z,99031.56
2019-05-09T20:07:46.897Z,99026.62
2019-05-09T20:10:35.182Z,99030.80
2019-05-09T20:13:29.523Z,99028.22
2019-05-09T20:15:58.951Z,99030.61
2019-05-09T20:18:28.382Z,99030.86
2019-05-09T20:20:57.940Z,99036.27
2019-05-09T20:23:27.336Z,99038.72
2019-05-09T20:25:56.772Z,99032.73
2019-05-09T20:28:26.306Z,99033.31
2019-05-09T20:30:55.745Z,99026.86
2019-05-09T20:33:25.152Z,99028.52
2019-05-09T20:35:54.587Z,99025.76
2019-05-09T20:38:24.204Z,99031.38
2019-05-09T20:40:53.817Z,99028.30
2019-05-09T20:43:23.442Z,99032.27
2019-05-09T20:45:53.110Z,99029.88
2019-05-09T20:48:22.712Z,99027.69
2019-05-09T20:50:52.326Z,99027.69
2019-05-09T20:53:21.940Z,99021.24
2019-05-09T20:55:51.566Z,99021.70
2019-05-09T20:58:21.179Z,99017.25
2019-05-09T21:00:50.767Z,99027.75
2019-05-09T21:03:20.395Z,99018.97
2019-05-09T21:05:50.014Z,99021.12
2019-05-09T21:08:19.619Z,99024.89
2019-05-09T21:10:49.226Z,99020.08
2019-05-09T21:13:18.917Z,99030.30
2019-05-09T21:15:48.542Z,99025.48
2019-05-09T21:18:18.220Z,99028.80
2019-05-09T21:20:47.866Z,99030.58
2019-05-09T21:23:24.877Z,99029.99
2019-05-09T21:25:48.821Z,99035.92
2019-05-09T21:28:18.416Z,99032.39
2019-05-09T21:30:48.033Z,99031.77
2019-05-09T21:33:17.633Z,99031.55
2019-05-09T21:35:47.067Z,99034.69
2019-05-09T21:38:16.512Z,99037.91
2019-05-09T21:40:45.938Z,99033.24
2019-05-09T21:43:15.381Z,99018.53
2019-05-09T21:45:44.877Z,99018.44
2019-05-09T21:48:14.394Z,99018.44
2019-05-09T21:50:43.815Z,99016.72
2019-05-09T21:53:13.263Z,99023.75
2019-05-09T21:55:42.687Z,99022.12
2019-05-09T21:58:12.104Z,99033.20
2019-05-09T22:00:41.577Z,99030.69
2019-05-09T22:03:11.038Z,99022.80
2019-05-09T22:05:40.477Z,99025.19
2019-05-09T22:08:09.919Z,99027.06
2019-05-09T22:10:39.334Z,99034.44
2019-05-09T22:13:08.768Z,99041.59
2019-05-09T22:15:38.209Z,99039.99
2019-05-09T22:18:07.696Z,99026.95
2019-05-09T22:20:37.122Z,98998.23
2019-05-09T22:23:06.851Z,99004.73
2019-05-09T22:25:36.263Z,99003.72
2019-05-09T22:28:05.691Z,99003.19
2019-05-09T22:30:35.141Z,99006.30
2019-05-09T22:33:04.617Z,99006.15
2019-05-09T22:35:34.151Z,98996.94
2019-05-09T22:38:03.587Z,98996.11
2019-05-09T22:40:33.033Z,98991.75
2019-05-09T22:43:02.452Z,98989.05
2019-05-09T22:45:31.897Z,98989.36
2019-05-09T22:48:01.327Z,98986.14
2019-05-09T22:50:30.802Z,98983.03
2019-05-09T22:53:00.242Z,98975.36
2019-05-09T22:55:29.671Z,98975.36
2019-05-09T22:57:59.082Z,98977.16
2019-05-09T23:00:28.535Z,98973.33
2019-05-09T23:02:57.972Z,98970.84
2019-05-09T23:05:27.424Z,98970.22
2019-05-09T23:07:56.835Z,98972.62
2019-05-09T23:10:26.287Z,98967.22
2019-05-09T23:12:55.721Z,98968.88
2019-05-09T23:15:25.162Z,98966.17
2019-05-09T23:17:54.612Z,98962.13
2019-05-09T23:20:48.885Z,98955.98
2019-05-09T23:23:39.923Z,98956.61
2019-05-09T23:26:10.034Z,98962.01
2019-05-09T23:28:39.552Z,98956.61
2019-05-09T23:31:12.636Z,98952.25
2019-05-09T23:33:42.676Z,98946.23
2019-05-09T23:36:12.133Z,98947.48
2019-05-09T23:38:59.098Z,98942.30
2019-05-09T23:41:28.629Z,98942.18
2019-05-09T23:43:58.052Z,98930.03
2019-05-09T23:46:27.758Z,98925.67
2019-05-09T23:48:57.204Z,98926.50
2019-05-09T23:51:44.455Z,98924.63
2019-05-09T23:54:45.082Z,98926.08
2019-05-09T23:57:21.118Z,98927.27
